createdAt,value
2018-02-11T00:01:24.484Z,79.82
2018-02-11T00:03:51.937Z,79.67
2018-02-11T00:06:19.618Z,79.88
2018-02-11T00:08:47.146Z,79.95
2018-02-11T00:11:14.584Z,79.48
2018-02-11T00:13:42.042Z,79.48
2018-02-11T00:16:09.521Z,79.77
2018-02-11T00:18:37.109Z,79.70
2018-02-11T00:21:04.545Z,79.70
2018-02-11T00:23:32.011Z,79.76
2018-02-11T00:25:59.479Z,80.15
2018-02-11T00:28:26.912Z,80.24
2018-02-11T00:30:54.589Z,80.04
2018-02-11T00:33:22.088Z,79.90
2018-02-11T00:35:49.503Z,80.23
2018-02-11T00:38:16.969Z,80.30
2018-02-11T00:40:44.405Z,80.39
2018-02-11T00:43:12.077Z,80.15
2018-02-11T00:45:39.517Z,80.40
2018-02-11T00:48:06.953Z,80.69
2018-02-11T00:50:34.417Z,80.83
2018-02-11T00:53:01.861Z,80.50
2018-02-11T00:55:29.453Z,80.34
2018-02-11T00:57:56.904Z,80.30
2018-02-11T01:00:24.381Z,80.61
2018-02-11T01:02:52.753Z,80.30
2018-02-11T01:05:20.188Z,80.43
2018-02-11T01:07:47.678Z,80.67
2018-02-11T01:10:15.149Z,80.75
2018-02-11T01:12:42.592Z,80.61
2018-02-11T01:15:10.091Z,80.39
2018-02-11T01:17:37.551Z,80.45
2018-02-11T01:20:05.153Z,80.84
2018-02-11T01:22:32.599Z,80.51
2018-02-11T01:25:00.051Z,80.33
2018-02-11T01:27:27.541Z,80.11
2018-02-11T01:29:54.978Z,80.54
2018-02-11T01:32:22.454Z,80.67
2018-02-11T01:34:49.897Z,80.36
2018-02-11T01:37:17.369Z,80.34
2018-02-11T01:39:44.826Z,79.78
2018-02-11T01:42:12.260Z,79.28
2018-02-11T01:44:39.929Z,79.84
2018-02-11T01:47:07.360Z,79.09
2018-02-11T01:49:34.800Z,79.13
2018-02-11T01:52:03.072Z,78.72
2018-02-11T01:54:30.516Z,78.53
2018-02-11T01:56:58.112Z,78.19
2018-02-11T01:59:25.549Z,77.54
2018-02-11T02:01:53.005Z,77.80
2018-02-11T02:04:20.461Z,76.97
2018-02-11T02:06:47.893Z,77.42
2018-02-11T02:09:15.391Z,77.24
2018-02-11T02:11:42.829Z,77.35
2018-02-11T02:14:10.260Z,77.28
2018-02-11T02:16:37.717Z,77.18
2018-02-11T02:19:05.169Z,77.35
2018-02-11T02:21:32.641Z,77.52
2018-02-11T02:24:00.078Z,77.30
2018-02-11T02:26:27.532Z,77.79
2018-02-11T02:28:54.993Z,77.92
2018-02-11T02:31:22.454Z,78.38
2018-02-11T02:33:50.060Z,78.52
2018-02-11T02:36:17.489Z,77.97
2018-02-11T02:38:44.924Z,78.44
2018-02-11T02:41:12.399Z,78.46
2018-02-11T02:43:39.832Z,78.05
2018-02-11T02:46:07.461Z,78.02
2018-02-11T02:48:34.933Z,78.15
2018-02-11T02:51:02.378Z,77.68
2018-02-11T02:53:29.837Z,77.72
2018-02-11T02:55:57.274Z,77.31
2018-02-11T02:58:24.945Z,77.03
2018-02-11T03:00:52.389Z,77.20
2018-02-11T03:03:19.820Z,77.18
2018-02-11T03:05:47.302Z,76.62
2018-02-11T03:08:14.732Z,76.90
2018-02-11T03:10:42.500Z,75.89
2018-02-11T03:13:09.973Z,76.20
2018-02-11T03:15:37.415Z,75.51
2018-02-11T03:18:04.879Z,75.23
2018-02-11T03:20:32.324Z,74.91
2018-02-11T03:22:59.784Z,75.67
2018-02-11T03:25:27.225Z,75.47
2018-02-11T03:27:54.681Z,75.24
2018-02-11T03:30:22.168Z,75.92
2018-02-11T03:32:49.604Z,75.65
2018-02-11T03:35:17.200Z,74.54
2018-02-11T03:37:44.641Z,74.71
2018-02-11T03:40:12.082Z,74.33
2018-02-11T03:42:39.536Z,74.80
2018-02-11T03:45:06.985Z,74.68
2018-02-11T03:47:34.452Z,74.41
2018-02-11T03:50:01.881Z,73.93
2018-02-11T03:52:29.312Z,73.45
2018-02-11T03:54:56.772Z,73.10
2018-02-11T03:57:24.377Z,73.16
2018-02-11T03:59:51.869Z,73.38
2018-02-11T04:02:19.356Z,73.44
2018-02-11T04:04:46.794Z,73.01
2018-02-11T04:07:14.384Z,73.02
2018-02-11T04:09:41.820Z,73.10
2018-02-11T04:12:09.564Z,73.14
2018-02-11T04:14:37.003Z,73.15
2018-02-11T04:17:04.432Z,73.37
2018-02-11T04:19:31.886Z,73.37
2018-02-11T04:21:59.325Z,73.54
2018-02-11T04:24:27.358Z,73.00
2018-02-11T04:26:54.799Z,72.95
2018-02-11T04:29:22.232Z,73.21
2018-02-11T04:31:49.728Z,72.96
2018-02-11T04:34:17.156Z,73.89
2018-02-11T04:36:44.743Z,73.50
2018-02-11T04:39:12.198Z,73.88
2018-02-11T04:41:39.645Z,73.95
2018-02-11T04:44:07.125Z,73.42
2018-02-11T04:46:34.552Z,73.66
2018-02-11T04:49:02.005Z,73.68
2018-02-11T04:51:29.460Z,73.74
2018-02-11T04:53:56.891Z,74.60
2018-02-11T04:56:24.348Z,74.39
2018-02-11T04:58:51.787Z,74.74
2018-02-11T05:01:19.245Z,74.45
2018-02-11T05:03:46.677Z,74.10
2018-02-11T05:06:14.133Z,73.67
2018-02-11T05:08:41.588Z,74.52
2018-02-11T05:11:09.020Z,74.47
2018-02-11T05:13:36.799Z,75.18
2018-02-11T05:16:04.232Z,75.27
2018-02-11T05:18:31.664Z,75.27
2018-02-11T05:20:59.134Z,74.67
2018-02-11T05:23:26.569Z,75.43
2018-02-11T05:25:54.034Z,75.20
2018-02-11T05:28:21.488Z,74.61
2018-02-11T05:30:48.940Z,75.93
2018-02-11T05:33:16.404Z,76.88
2018-02-11T05:35:43.836Z,77.83
2018-02-11T05:38:11.309Z,78.25
2018-02-11T05:40:38.744Z,78.96
2018-02-11T05:43:06.173Z,80.05
2018-02-11T05:45:33.636Z,80.52
2018-02-11T05:48:01.065Z,80.41
2018-02-11T05:50:28.728Z,81.32
2018-02-11T05:52:56.160Z,81.70
2018-02-11T05:55:23.588Z,83.24
2018-02-11T05:57:51.040Z,83.13
2018-02-11T06:00:18.522Z,83.36
2018-02-11T06:02:45.972Z,83.22
2018-02-11T06:05:13.405Z,82.84
2018-02-11T06:07:40.900Z,83.38
2018-02-11T06:10:08.377Z,83.67
2018-02-11T06:12:35.816Z,83.38
2018-02-11T06:15:03.416Z,83.30
2018-02-11T06:17:30.868Z,83.16
2018-02-11T06:19:58.301Z,82.98
2018-02-11T06:22:25.758Z,83.02
2018-02-11T06:24:53.190Z,83.49
2018-02-11T06:27:20.956Z,83.44
2018-02-11T06:29:48.393Z,82.97
2018-02-11T06:32:15.844Z,82.59
2018-02-11T06:34:43.305Z,82.46
2018-02-11T06:37:10.741Z,82.38
2018-02-11T06:39:38.386Z,82.92
2018-02-11T06:42:05.825Z,82.88
2018-02-11T06:44:33.252Z,83.11
2018-02-11T06:47:00.705Z,83.75
2018-02-11T06:49:28.161Z,83.38
2018-02-11T06:51:55.774Z,82.88
2018-02-11T06:54:23.201Z,82.90
2018-02-11T06:56:50.633Z,83.67
2018-02-11T06:59:18.093Z,83.33
2018-02-11T07:01:45.545Z,82.90
2018-02-11T07:04:13.166Z,84.12
2018-02-11T07:06:40.602Z,84.26
2018-02-11T07:09:08.033Z,84.23
2018-02-11T07:11:35.498Z,84.73
2018-02-11T07:14:02.972Z,84.75
2018-02-11T07:16:30.468Z,85.77
2018-02-11T07:18:57.899Z,85.97
2018-02-11T07:21:25.340Z,86.32
2018-02-11T07:23:52.797Z,86.26
2018-02-11T07:26:20.333Z,86.44
2018-02-11T07:28:47.985Z,86.20
2018-02-11T07:31:15.420Z,86.04
2018-02-11T07:33:42.910Z,86.63
2018-02-11T07:36:10.372Z,86.06
2018-02-11T07:38:37.806Z,85.97
2018-02-11T07:41:05.293Z,86.09
2018-02-11T07:43:32.724Z,86.51
2018-02-11T07:46:00.161Z,86.59
2018-02-11T07:48:27.613Z,86.69
2018-02-11T07:50:55.069Z,86.16
2018-02-11T07:53:22.694Z,85.93
2018-02-11T07:55:50.125Z,85.02
2018-02-11T07:58:17.561Z,85.38
2018-02-11T08:00:45.076Z,84.40
2018-02-11T08:03:12.528Z,84.66
2018-02-11T08:05:40.216Z,83.69
2018-02-11T08:08:07.691Z,83.47
2018-02-11T08:10:35.128Z,83.97
2018-02-11T08:13:02.609Z,84.35
2018-02-11T08:15:30.042Z,83.65
2018-02-11T08:17:57.673Z,83.34
2018-02-11T08:20:25.105Z,83.78
2018-02-11T08:22:52.549Z,82.80
2018-02-11T08:25:20.038Z,83.52
2018-02-11T08:27:47.501Z,83.81
2018-02-11T08:30:15.165Z,82.96
2018-02-11T08:32:42.596Z,83.20
2018-02-11T08:35:10.036Z,82.90
2018-02-11T08:37:37.504Z,83.42
2018-02-11T08:40:04.952Z,82.13
2018-02-11T08:42:32.907Z,82.40
2018-02-11T08:45:05.818Z,82.20
2018-02-11T08:47:33.301Z,83.11
2018-02-11T08:50:03.335Z,82.92
2018-02-11T08:52:34.195Z,83.04
2018-02-11T08:55:05.808Z,83.38
2018-02-11T08:57:37.240Z,83.00
2018-02-11T09:00:04.716Z,82.22
2018-02-11T09:02:32.277Z,82.40
2018-02-11T09:04:59.745Z,82.23
2018-02-11T09:07:27.201Z,82.62
2018-02-11T09:09:55.079Z,82.63
2018-02-11T09:12:22.606Z,82.69
2018-02-11T09:14:50.112Z,82.25
2018-02-11T09:17:17.605Z,81.60
2018-02-11T09:19:45.124Z,82.18
2018-02-11T09:22:13.001Z,83.21
2018-02-11T09:24:40.464Z,82.46
2018-02-11T09:27:08.226Z,82.65
2018-02-11T09:29:35.769Z,82.54
2018-02-11T09:32:03.335Z,82.53
2018-02-11T09:34:30.966Z,82.36
2018-02-11T09:36:58.515Z,82.18
2018-02-11T09:39:26.742Z,82.73
2018-02-11T09:41:54.269Z,83.23
2018-02-11T09:44:21.701Z,83.36
2018-02-11T09:46:49.531Z,83.12
2018-02-11T09:49:17.998Z,83.79
2018-02-11T09:51:45.512Z,84.14
2018-02-11T09:54:13.110Z,84.40
2018-02-11T09:56:40.608Z,83.76
2018-02-11T09:59:08.495Z,83.37
2018-02-11T10:01:38.443Z,83.50
2018-02-11T10:04:05.923Z,82.66
2018-02-11T10:06:33.461Z,82.44
2018-02-11T10:09:00.970Z,83.30
2018-02-11T10:11:30.520Z,83.17
2018-02-11T10:13:57.961Z,83.02
2018-02-11T10:16:25.405Z,83.05
2018-02-11T10:18:52.861Z,83.37
2018-02-11T10:21:20.294Z,82.77
2018-02-11T10:23:47.910Z,83.32
2018-02-11T10:26:15.348Z,83.70
2018-02-11T10:31:49.762Z,82.89
2018-02-11T10:34:17.245Z,82.97
2018-02-11T10:36:44.813Z,82.64
2018-02-11T10:39:12.253Z,83.06
2018-02-11T10:41:39.690Z,83.07
2018-02-11T10:44:07.149Z,83.86
2018-02-11T10:46:34.820Z,83.04
2018-02-11T10:49:02.465Z,83.11
2018-02-11T10:51:29.914Z,82.73
2018-02-11T10:53:57.348Z,82.23
2018-02-11T10:56:24.804Z,82.31
2018-02-11T10:58:53.883Z,82.45
2018-02-11T11:01:21.447Z,82.93
2018-02-11T11:03:48.898Z,82.56
2018-02-11T11:06:16.337Z,82.43
2018-02-11T11:08:43.801Z,82.81
2018-02-11T11:11:11.244Z,82.74
2018-02-11T11:13:38.880Z,83.60
2018-02-11T11:16:06.364Z,83.41
2018-02-11T11:18:33.842Z,84.79
2018-02-11T11:21:01.298Z,85.17
2018-02-11T11:23:28.756Z,84.89
2018-02-11T11:25:56.266Z,84.07
2018-02-11T11:28:23.668Z,83.97
2018-02-11T11:30:51.122Z,83.85
2018-02-11T11:33:18.592Z,84.37
2018-02-11T11:35:46.084Z,83.97
2018-02-11T11:38:13.872Z,83.58
2018-02-11T11:40:41.337Z,82.49
2018-02-11T11:43:08.789Z,83.09
2018-02-11T11:45:36.284Z,84.24
2018-02-11T11:48:03.725Z,83.67
2018-02-11T11:50:31.417Z,82.40
2018-02-11T11:52:58.851Z,83.72
2018-02-11T11:55:26.284Z,84.46
2018-02-11T11:57:53.740Z,84.51
2018-02-11T12:00:21.173Z,84.07
2018-02-11T12:02:48.822Z,82.68
2018-02-11T12:05:16.255Z,83.18
2018-02-11T12:07:43.693Z,82.69
2018-02-11T12:10:11.161Z,83.57
2018-02-11T12:12:38.597Z,82.46
2018-02-11T12:15:06.209Z,83.24
2018-02-11T12:17:33.681Z,83.68
2018-02-11T12:20:01.113Z,82.53
2018-02-11T12:22:28.569Z,82.34
2018-02-11T12:24:55.996Z,81.11
2018-02-11T12:27:23.797Z,81.34
2018-02-11T12:29:51.232Z,81.09
2018-02-11T12:32:18.664Z,82.10
2018-02-11T12:34:46.121Z,82.89
2018-02-11T12:37:13.561Z,81.84
2018-02-11T12:39:41.186Z,82.39
2018-02-11T12:42:08.627Z,81.84
2018-02-11T12:44:36.076Z,82.60
2018-02-11T12:47:03.539Z,82.78
2018-02-11T12:49:31.004Z,82.68
2018-02-11T12:51:58.772Z,82.57
2018-02-11T12:54:26.207Z,81.81
2018-02-11T12:56:53.657Z,81.92
2018-02-11T12:59:21.162Z,82.19
2018-02-11T13:01:48.602Z,81.50
2018-02-11T13:04:16.068Z,81.40
2018-02-11T13:06:43.517Z,81.22
2018-02-11T13:09:10.954Z,81.58
2018-02-11T13:11:38.453Z,81.91
2018-02-11T13:14:05.905Z,81.71
2018-02-11T13:16:33.541Z,82.40
2018-02-11T13:19:00.972Z,82.89
2018-02-11T13:21:28.453Z,81.74
2018-02-11T13:23:55.910Z,83.02
2018-02-11T13:26:23.353Z,83.03
2018-02-11T13:28:50.807Z,82.78
2018-02-11T13:31:18.293Z,82.39
2018-02-11T13:33:45.733Z,82.90
2018-02-11T13:36:13.205Z,83.87
2018-02-11T13:38:40.637Z,83.84
2018-02-11T13:41:08.413Z,84.81
2018-02-11T13:43:35.865Z,84.80
2018-02-11T13:46:03.309Z,84.86
2018-02-11T13:48:30.764Z,85.91
2018-02-11T13:50:58.196Z,85.84
2018-02-11T13:53:25.957Z,86.30
2018-02-11T13:55:53.388Z,87.12
2018-02-11T13:58:20.820Z,86.65
2018-02-11T14:00:49.117Z,86.28
2018-02-11T14:03:16.549Z,84.65
2018-02-11T14:05:44.006Z,84.37
2018-02-11T14:08:11.442Z,84.83
2018-02-11T14:10:38.883Z,84.37
2018-02-11T14:13:06.365Z,83.94
2018-02-11T14:15:33.814Z,83.99
2018-02-11T14:18:01.489Z,83.98
2018-02-11T14:20:28.999Z,83.86
2018-02-11T14:22:56.511Z,84.18
2018-02-11T14:25:23.981Z,84.55
2018-02-11T14:27:51.422Z,84.67
2018-02-11T14:30:18.908Z,85.68
2018-02-11T14:32:46.373Z,84.46
2018-02-11T14:35:13.809Z,84.13
2018-02-11T14:37:41.265Z,83.60
2018-02-11T14:40:08.701Z,83.03
2018-02-11T14:42:36.567Z,83.48
2018-02-11T14:45:04.001Z,82.89
2018-02-11T14:47:31.457Z,83.20
2018-02-11T14:49:58.941Z,82.76
2018-02-11T14:52:26.372Z,83.39
2018-02-11T14:54:53.833Z,83.30
2018-02-11T14:57:21.269Z,83.17
2018-02-11T14:59:48.703Z,82.54
2018-02-11T15:02:16.154Z,83.71
2018-02-11T15:04:43.636Z,83.26
2018-02-11T15:07:11.287Z,83.16
2018-02-11T15:09:38.860Z,82.86
2018-02-11T15:12:06.305Z,83.18
2018-02-11T15:14:33.760Z,84.39
2018-02-11T15:17:01.192Z,83.07
2018-02-11T15:19:28.800Z,82.48
2018-02-11T15:21:56.239Z,82.74
2018-02-11T15:24:23.677Z,82.80
2018-02-11T15:26:51.132Z,83.18
2018-02-11T15:29:18.568Z,83.17
2018-02-11T15:31:46.218Z,82.86
2018-02-11T15:34:13.649Z,84.51
2018-02-11T15:36:41.131Z,84.77
2018-02-11T15:39:08.642Z,85.13
2018-02-11T15:41:36.077Z,84.97
2018-02-11T15:44:03.548Z,85.61
2018-02-11T15:46:30.997Z,86.12
2018-02-11T15:48:58.436Z,86.10
2018-02-11T15:51:25.910Z,86.06
2018-02-11T15:53:53.340Z,85.59
2018-02-11T15:56:20.819Z,86.70
2018-02-11T15:58:48.256Z,87.59
2018-02-11T16:01:15.690Z,88.20
2018-02-11T16:03:43.147Z,88.21
2018-02-11T16:06:10.598Z,87.59
2018-02-11T16:08:38.261Z,86.39
2018-02-11T16:11:05.699Z,86.80
2018-02-11T16:13:33.133Z,86.98
2018-02-11T16:16:00.589Z,87.67
2018-02-11T16:18:28.023Z,88.08
2018-02-11T16:20:55.651Z,88.33
2018-02-11T16:23:23.106Z,88.45
2018-02-11T16:25:50.547Z,87.98
2018-02-11T16:28:18.974Z,87.73
2018-02-11T16:30:47.975Z,87.97
2018-02-11T16:33:16.568Z,87.73
2018-02-11T16:35:44.009Z,87.86
2018-02-11T16:38:11.441Z,87.14
2018-02-11T16:40:38.902Z,86.40
2018-02-11T16:43:06.336Z,86.49
2018-02-11T16:45:33.798Z,85.57
2018-02-11T16:48:01.233Z,84.97
2018-02-11T16:50:28.719Z,86.28
2018-02-11T16:52:56.145Z,85.75
2018-02-11T16:55:23.585Z,86.17
2018-02-11T16:57:51.277Z,85.14
2018-02-11T17:00:18.709Z,85.60
2018-02-11T17:02:46.149Z,86.09
2018-02-11T17:05:13.613Z,86.35
2018-02-11T17:07:41.049Z,85.19
2018-02-11T17:10:08.878Z,83.71
2018-02-11T17:12:36.308Z,85.23
2018-02-11T17:15:03.737Z,84.58
2018-02-11T17:17:31.196Z,84.02
2018-02-11T17:19:58.629Z,83.03
2018-02-11T17:22:26.285Z,83.43
2018-02-11T17:24:53.716Z,84.11
2018-02-11T17:27:21.149Z,83.17
2018-02-11T17:29:48.603Z,83.65
2018-02-11T17:32:16.045Z,83.11
2018-02-11T17:34:43.742Z,83.89
2018-02-11T17:37:11.210Z,83.31
2018-02-11T17:39:38.642Z,83.55
2018-02-11T17:42:06.096Z,82.67
2018-02-11T17:44:33.532Z,83.31
2018-02-11T17:47:01.235Z,83.41
2018-02-11T17:49:28.673Z,84.07
2018-02-11T17:51:56.108Z,84.49
2018-02-11T17:54:23.572Z,83.68
2018-02-11T17:56:51.005Z,83.82
2018-02-11T17:59:18.732Z,83.44
2018-02-11T18:01:46.166Z,84.10
2018-02-11T18:04:13.613Z,84.37
2018-02-11T18:06:41.069Z,85.24
2018-02-11T18:09:08.525Z,84.57
2018-02-11T18:11:36.102Z,84.76
2018-02-11T18:14:04.182Z,84.68
2018-02-11T18:16:31.641Z,84.70
2018-02-11T18:19:01.879Z,85.00
2018-02-11T18:21:29.317Z,85.12
2018-02-11T18:23:57.083Z,86.33
2018-02-11T18:26:24.532Z,85.67
2018-02-11T18:28:51.965Z,86.45
2018-02-11T18:31:19.498Z,86.89
2018-02-11T18:33:46.935Z,87.37
2018-02-11T18:36:14.404Z,86.99
2018-02-11T18:38:41.857Z,87.69
2018-02-11T18:41:09.292Z,87.34
2018-02-11T18:43:36.757Z,88.20
2018-02-11T18:46:04.189Z,88.61
2018-02-11T18:48:31.643Z,89.21
2018-02-11T18:50:59.116Z,90.12
2018-02-11T18:53:26.545Z,88.75
2018-02-11T18:55:53.996Z,88.83
2018-02-11T18:58:21.444Z,88.79
2018-02-11T19:00:48.881Z,88.58
2018-02-11T19:03:16.332Z,89.46
2018-02-11T19:05:43.768Z,87.65
2018-02-11T19:08:11.209Z,87.90
2018-02-11T19:10:39.058Z,88.70
2018-02-11T19:13:06.493Z,88.78
2018-02-11T19:15:33.941Z,89.54
2018-02-11T19:18:01.410Z,90.13
2018-02-11T19:20:28.868Z,90.14
2018-02-11T19:22:56.328Z,89.48
2018-02-11T19:25:23.773Z,90.71
2018-02-11T19:27:51.205Z,90.60
2018-02-11T19:30:18.657Z,90.40
2018-02-11T19:32:46.097Z,89.56
2018-02-11T19:35:13.718Z,89.15
2018-02-11T19:37:41.148Z,89.32
2018-02-11T19:40:08.587Z,89.02
2018-02-11T19:42:36.076Z,88.88
2018-02-11T19:45:03.541Z,89.50
2018-02-11T19:47:31.043Z,89.62
2018-02-11T19:49:58.473Z,89.19
2018-02-11T19:52:25.905Z,89.05
2018-02-11T19:54:53.370Z,89.00
2018-02-11T19:57:20.807Z,88.52
2018-02-11T19:59:48.505Z,88.64
2018-02-11T20:02:15.941Z,88.05
2018-02-11T20:04:43.381Z,88.08
2018-02-11T20:07:10.842Z,87.95
2018-02-11T20:09:38.277Z,87.91
2018-02-11T20:12:05.880Z,87.55
2018-02-11T20:14:33.322Z,87.43
2018-02-11T20:17:00.754Z,87.09
2018-02-11T20:19:28.212Z,87.05
2018-02-11T20:21:55.650Z,87.04
2018-02-11T20:24:23.109Z,86.70
2018-02-11T20:26:50.543Z,85.54
2018-02-11T20:29:17.985Z,86.53
2018-02-11T20:31:45.462Z,86.19
2018-02-11T20:34:12.913Z,86.11
2018-02-11T20:36:40.545Z,85.48
2018-02-11T20:39:08.001Z,86.04
2018-02-11T20:41:35.442Z,86.22
2018-02-11T20:44:02.897Z,86.11
2018-02-11T20:46:30.337Z,86.22
2018-02-11T20:48:57.930Z,85.93
2018-02-11T20:51:25.365Z,86.31
2018-02-11T20:53:52.820Z,86.15
2018-02-11T20:56:20.287Z,86.57
2018-02-11T20:58:47.718Z,85.97
2018-02-11T21:01:15.185Z,85.85
2018-02-11T21:03:42.640Z,86.21
2018-02-11T21:06:10.114Z,86.46
2018-02-11T21:08:37.553Z,86.43
2018-02-11T21:11:04.998Z,85.96
2018-02-11T21:13:32.710Z,86.09
2018-02-11T21:16:00.159Z,85.90
2018-02-11T21:18:27.593Z,85.86
2018-02-11T21:20:55.066Z,86.37
2018-02-11T21:23:22.533Z,86.66
2018-02-11T21:25:50.392Z,86.57
2018-02-11T21:28:17.852Z,86.24
2018-02-11T21:30:45.291Z,86.82
2018-02-11T21:33:12.740Z,87.00
2018-02-11T21:35:40.202Z,86.83
2018-02-11T21:38:07.760Z,85.42
2018-02-11T21:40:35.249Z,86.14
2018-02-11T21:43:02.653Z,85.30
2018-02-11T21:45:30.108Z,84.68
2018-02-11T21:47:57.542Z,85.45
2018-02-11T21:50:25.009Z,84.76
2018-02-11T21:55:26.413Z,83.74
2018-02-11T21:57:53.858Z,84.33
2018-02-11T22:00:21.294Z,83.46
2018-02-11T22:02:48.761Z,82.94
2018-02-11T22:05:16.198Z,82.96
2018-02-11T22:07:43.650Z,82.19
2018-02-11T22:10:11.085Z,82.58
2018-02-11T22:12:38.520Z,82.01
2018-02-11T22:15:05.977Z,82.01
2018-02-11T22:17:33.413Z,83.11
2018-02-11T22:20:00.873Z,84.09
2018-02-11T22:22:28.306Z,84.63
2018-02-11T22:24:55.743Z,85.32
2018-02-11T22:27:23.201Z,85.44
2018-02-11T22:29:50.632Z,85.33
2018-02-11T22:32:18.271Z,84.87
2018-02-11T22:34:45.705Z,84.93
2018-02-11T22:37:13.141Z,85.42
2018-02-11T22:39:40.596Z,85.26
2018-02-11T22:42:08.028Z,85.17
2018-02-11T22:44:35.497Z,84.98
2018-02-11T22:47:02.932Z,85.00
2018-02-11T22:49:30.369Z,85.23
2018-02-11T22:51:57.825Z,85.57
2018-02-11T22:54:25.268Z,86.02
2018-02-11T22:56:52.740Z,86.58
2018-02-11T22:59:20.181Z,86.59
2018-02-11T23:01:47.944Z,86.55
2018-02-11T23:04:15.581Z,86.27
2018-02-11T23:06:43.017Z,86.74
2018-02-11T23:09:10.460Z,86.96
2018-02-11T23:11:38.082Z,87.35
2018-02-11T23:14:05.521Z,88.29
2018-02-11T23:16:32.956Z,88.07
2018-02-11T23:19:00.658Z,88.75
2018-02-11T23:21:28.089Z,88.13
2018-02-11T23:23:55.518Z,87.94
2018-02-11T23:26:23.157Z,87.25
2018-02-11T23:28:50.596Z,87.78
2018-02-11T23:31:18.028Z,88.08
2018-02-11T23:33:45.707Z,87.68
2018-02-11T23:36:13.137Z,88.35
2018-02-11T23:38:40.569Z,88.24
2018-02-11T23:41:08.274Z,88.76
2018-02-11T23:43:35.712Z,88.24
2018-02-11T23:46:03.156Z,88.30
2018-02-11T23:48:30.615Z,88.42
2018-02-11T23:50:58.068Z,88.37
2018-02-11T23:53:25.527Z,88.41
2018-02-11T23:55:53.128Z,87.45
2018-02-11T23:58:20.580Z,87.70
